VTUV

Details ICAO VTUV (ROI)
Name Roi Et
Region Thailand
Timezone Asia/Bangkok (UTC+7.0)
Plans Departing 4
Arriving 7
Stats Elevation 451 ft / 137 m (AMSL)
Location 16.116760° 103.773798°
Runways 1
Magnetic Variation 0.836° W
Sunrise 2017-12-12 23:24:58 UTC / 2017-12-13 06:24:58 Local
Sunset 2017-12-13 10:35:49 UTC / 2017-12-13 17:35:49 Local
Advertisement - Login to hide

Runways

ID Width Length Bearing (true) Bearing (mag) Surface Threshold Offset Overrun Length
18 148 ft / 45 m 6,939 ft / 2,115 m 182.45° 183.29° Asphalt 0 ft / 0 m 197 ft / 60 m
36 148 ft / 45 m 6,939 ft / 2,115 m 2.45° 3.29° Asphalt 0 ft / 0 m 197 ft / 60 m

Approach Navaids

Runway Type Ident Frequency Range Bearing (true) Bearing (mag) Slope Elevation
36 Localiser IROT 109.50 MHz 18 nm / 33 km 2.45° 3.29° - 448 ft / 137 m (AMSL)
36 Glidescope IROT 109.50 MHz 10 nm / 19 km 2.45° 3.29° 3.00° 451 ft / 137 m (AMSL)
36 DME IROT 109.50 MHz 18 nm / 33 km - - - 448 ft / 137 m (AMSL)

Map

Weather


0- 5 10 15 20 25 30 35+ Temperature / ° C

Clouds and Precipitation
Forecast for 2017-12-13 00:00 UTC. Updated 28 minutes ago

Ground ~20,000 ft ~40,000 ft Winds

METAR

Not found

TAF

TAF VTUV 121700Z 1218/1318 07004KT 7000 FEW025 BECMG 1221/1223 09005KT 7000 NSC

Frequencies

Tower 119.75 MHz TWR
Approach 125.40 MHz APP
Warning: Do not use this data for real-world aviation or navigation. No guarantee of current accuracy is given.